createdAt,value
2022-10-25T00:01:30.408Z,1.23
2022-10-25T00:03:57.521Z,1.20
2022-10-25T00:06:24.667Z,1.27
2022-10-25T00:08:51.433Z,1.10
2022-10-25T00:11:26.779Z,1.58
2022-10-25T00:13:55.825Z,1.25
2022-10-25T00:16:25.218Z,1.33
2022-10-25T00:18:52.107Z,1.30
2022-10-25T00:21:18.972Z,1.35
2022-10-25T00:23:46.431Z,1.45
2022-10-25T00:26:13.438Z,1.45
2022-10-25T00:28:40.757Z,1.20
2022-10-25T00:31:10.052Z,1.35
2022-10-25T00:33:38.565Z,1.20
2022-10-25T00:36:11.219Z,1.20
2022-10-25T00:38:37.863Z,1.20
2022-10-25T00:41:05.037Z,1.15
2022-10-25T00:44:16.725Z,1.13
2022-10-25T00:46:44.843Z,1.40
2022-10-25T00:49:18.672Z,1.10
2022-10-25T00:51:56.049Z,1.30
2022-10-25T00:54:28.403Z,1.02
2022-10-25T00:56:57.989Z,1.10
2022-10-25T00:59:26.647Z,1.10
2022-10-25T01:01:55.212Z,1.15
2022-10-25T01:04:28.733Z,1.23
2022-10-25T01:06:57.299Z,1.05
2022-10-25T01:09:26.546Z,1.42
2022-10-25T01:11:53.560Z,1.50
2022-10-25T01:14:20.626Z,1.48
2022-10-25T01:17:05.703Z,1.20
2022-10-25T01:19:51.102Z,1.23
2022-10-25T01:22:27.192Z,1.27
2022-10-25T01:25:20.945Z,1.15
2022-10-25T01:28:06.358Z,1.50
2022-10-25T01:30:51.588Z,1.20
2022-10-25T01:33:27.791Z,1.50
2022-10-25T01:36:11.619Z,1.20
2022-10-25T01:38:47.171Z,1.38
2022-10-25T01:41:40.114Z,1.33
2022-10-25T01:44:32.173Z,0.90
2022-10-25T01:47:04.072Z,1.02
2022-10-25T01:49:50.840Z,1.13
2022-10-25T01:52:22.787Z,1.30
2022-10-25T01:54:50.573Z,1.23
2022-10-25T01:57:39.195Z,1.23
2022-10-25T02:00:17.762Z,1.10
2022-10-25T02:02:47.795Z,1.02
2022-10-25T02:05:48.673Z,1.20
2022-10-25T02:08:28.892Z,1.02
2022-10-25T02:11:01.943Z,1.23
2022-10-25T02:13:40.615Z,1.23
2022-10-25T02:16:12.018Z,1.33
2022-10-25T02:18:43.352Z,0.98
2022-10-25T02:21:12.279Z,1.30
2022-10-25T02:23:40.292Z,1.25
2022-10-25T02:26:09.543Z,1.30
2022-10-25T02:28:39.813Z,1.20
2022-10-25T02:31:09.683Z,1.13
2022-10-25T02:33:37.171Z,1.08
2022-10-25T02:36:12.606Z,0.98
2022-10-25T02:38:40.070Z,1.00
2022-10-25T02:41:06.797Z,1.00
2022-10-25T02:43:33.515Z,1.20
2022-10-25T02:46:04.600Z,1.08
2022-10-25T02:48:31.187Z,1.25
2022-10-25T02:50:57.728Z,1.13
2022-10-25T02:53:24.285Z,0.93
2022-10-25T02:56:10.822Z,1.63
2022-10-25T02:58:39.810Z,1.33
2022-10-25T03:01:07.616Z,1.10
2022-10-25T03:03:34.411Z,1.10
2022-10-25T03:06:01.368Z,1.27
2022-10-25T03:10:55.580Z,1.20
2022-10-25T03:13:22.511Z,1.25
2022-10-25T03:15:49.084Z,1.77
2022-10-25T03:18:16.149Z,1.25
2022-10-25T03:20:43.775Z,1.20
2022-10-25T03:23:10.996Z,1.38
2022-10-25T03:25:37.673Z,1.00
2022-10-25T03:28:04.600Z,1.35
2022-10-25T03:30:31.708Z,1.05
2022-10-25T03:32:58.729Z,1.25
2022-10-25T03:35:26.656Z,1.20
2022-10-25T03:37:53.621Z,1.20
2022-10-25T03:40:20.869Z,0.98
2022-10-25T03:42:47.522Z,1.42
2022-10-25T03:45:14.103Z,1.23
2022-10-25T03:47:40.748Z,1.17
2022-10-25T03:50:08.356Z,1.80
2022-10-25T03:52:35.455Z,1.08
2022-10-25T03:55:02.128Z,1.23
2022-10-25T03:57:28.883Z,1.40
2022-10-25T03:59:55.453Z,1.23
2022-10-25T04:02:22.105Z,1.35
2022-10-25T04:04:48.655Z,1.08
2022-10-25T04:07:15.296Z,1.20
2022-10-25T04:09:42.041Z,1.10
2022-10-25T04:12:08.721Z,1.20
2022-10-25T04:14:35.245Z,1.33
2022-10-25T04:17:01.870Z,1.55
2022-10-25T04:19:28.535Z,1.20
2022-10-25T04:21:55.266Z,1.38
2022-10-25T04:24:22.725Z,1.40
2022-10-25T04:26:49.371Z,1.23
2022-10-25T04:29:17.301Z,1.48
2022-10-25T04:31:44.004Z,1.55
2022-10-25T04:34:10.726Z,1.48
2022-10-25T04:36:38.933Z,1.38
2022-10-25T04:39:05.797Z,1.58
2022-10-25T04:41:32.357Z,1.67
2022-10-25T04:43:58.955Z,1.73
2022-10-25T04:46:25.499Z,1.25
2022-10-25T04:48:52.103Z,1.52
2022-10-25T04:51:19.209Z,1.50
2022-10-25T04:53:45.763Z,1.50
2022-10-25T04:56:16.476Z,1.40
2022-10-25T04:58:43.034Z,1.50
2022-10-25T05:01:13.185Z,1.20
2022-10-25T05:03:41.373Z,1.63
2022-10-25T05:06:10.413Z,1.30
2022-10-25T05:08:40.067Z,1.70
2022-10-25T05:11:07.965Z,1.55
2022-10-25T05:13:37.170Z,1.80
2022-10-25T05:16:04.447Z,1.80
2022-10-25T05:18:31.981Z,1.77
2022-10-25T05:21:04.643Z,1.60
2022-10-25T05:23:33.268Z,1.70
2022-10-25T05:26:12.217Z,2.05
2022-10-25T05:28:41.616Z,2.00
2022-10-25T05:31:11.809Z,1.85
2022-10-25T05:33:38.524Z,1.70
2022-10-25T05:36:05.449Z,1.77
2022-10-25T05:38:34.384Z,1.95
2022-10-25T05:41:05.314Z,1.88
2022-10-25T05:43:31.996Z,2.10
2022-10-25T05:46:20.533Z,1.88
2022-10-25T05:48:49.210Z,1.98
2022-10-25T05:51:34.618Z,1.98
2022-10-25T05:54:09.247Z,2.00
2022-10-25T05:56:38.029Z,2.00
2022-10-25T05:59:08.719Z,1.77
2022-10-25T06:01:43.761Z,1.92
2022-10-25T06:04:11.518Z,2.15
2022-10-25T06:06:39.739Z,1.90
2022-10-25T06:09:06.786Z,2.08
2022-10-25T06:11:34.361Z,2.20
2022-10-25T06:14:01.459Z,1.80
2022-10-25T06:16:28.674Z,2.25
2022-10-25T06:18:55.269Z,2.30
2022-10-25T06:21:26.927Z,2.20
2022-10-25T06:23:54.470Z,2.40
2022-10-25T06:26:24.141Z,2.50
2022-10-25T06:28:55.958Z,1.90
2022-10-25T06:31:23.123Z,2.15
2022-10-25T06:33:50.156Z,2.10
2022-10-25T06:36:20.026Z,2.10
2022-10-25T06:38:47.599Z,2.10
2022-10-25T06:41:19.927Z,2.25
2022-10-25T06:43:46.899Z,2.40
2022-10-25T06:46:40.597Z,2.25
2022-10-25T06:49:19.288Z,2.20
2022-10-25T06:51:45.808Z,1.92
2022-10-25T06:54:12.352Z,1.95
2022-10-25T06:56:38.993Z,2.00
2022-10-25T06:59:07.147Z,2.22
2022-10-25T07:01:34.291Z,2.20
2022-10-25T07:04:03.107Z,2.80
2022-10-25T07:06:37.780Z,2.13
2022-10-25T07:09:05.570Z,2.45
2022-10-25T07:11:32.992Z,2.42
2022-10-25T07:14:00.607Z,2.30
2022-10-25T07:16:28.330Z,2.40
2022-10-25T07:18:59.898Z,2.55
2022-10-25T07:21:27.103Z,2.50
2022-10-25T07:23:53.669Z,2.38
2022-10-25T07:26:23.491Z,2.40
2022-10-25T07:28:51.812Z,2.50
2022-10-25T07:31:24.419Z,2.95
2022-10-25T07:33:52.544Z,2.38
2022-10-25T07:36:19.838Z,2.53
2022-10-25T07:38:46.864Z,2.67
2022-10-25T07:41:13.589Z,2.40
2022-10-25T07:43:40.240Z,2.83
2022-10-25T07:46:07.106Z,2.42
2022-10-25T07:48:34.298Z,2.70
2022-10-25T07:51:05.995Z,2.88
2022-10-25T07:53:32.588Z,2.80
2022-10-25T07:55:59.246Z,3.10
2022-10-25T07:58:25.852Z,2.75
2022-10-25T08:00:52.380Z,3.05
2022-10-25T08:03:19.082Z,2.70
2022-10-25T08:05:47.398Z,3.05
2022-10-25T08:08:14.582Z,2.75
2022-10-25T08:10:44.752Z,2.78
2022-10-25T08:13:11.648Z,2.50
2022-10-25T08:15:40.686Z,2.80
2022-10-25T08:18:08.207Z,2.90
2022-10-25T08:21:00.628Z,2.92
2022-10-25T08:23:21.643Z,3.15
2022-10-25T08:25:48.164Z,2.50
2022-10-25T08:28:14.744Z,3.05
2022-10-25T08:30:41.829Z,3.08
2022-10-25T08:33:11.622Z,3.03
2022-10-25T08:35:39.040Z,2.88
2022-10-25T08:38:05.961Z,2.90
2022-10-25T08:40:55.579Z,2.72
2022-10-25T08:43:57.476Z,2.70
2022-10-25T08:46:29.269Z,2.75
2022-10-25T08:49:22.491Z,2.92
2022-10-25T08:51:50.801Z,2.90
2022-10-25T08:54:37.556Z,2.40
2022-10-25T08:57:19.084Z,3.03
2022-10-25T08:59:49.593Z,2.90
2022-10-25T09:02:23.974Z,3.03
2022-10-25T09:04:50.730Z,2.83
2022-10-25T09:07:26.404Z,2.60
2022-10-25T09:10:14.240Z,2.78
2022-10-25T09:12:56.008Z,2.75
2022-10-25T09:15:40.520Z,2.63
2022-10-25T09:18:17.872Z,2.83
2022-10-25T09:20:50.698Z,2.80
2022-10-25T09:23:33.088Z,2.75
2022-10-25T09:26:08.389Z,2.45
2022-10-25T09:31:06.008Z,2.72
2022-10-25T09:33:34.527Z,2.72
2022-10-25T09:36:03.642Z,2.60
2022-10-25T09:38:41.647Z,3.10
2022-10-25T09:41:35.730Z,2.95
2022-10-25T09:44:10.475Z,2.30
2022-10-25T09:46:51.714Z,2.35
2022-10-25T09:49:31.292Z,2.70
2022-10-25T09:52:09.737Z,2.70
2022-10-25T09:54:46.001Z,2.50
2022-10-25T09:57:12.664Z,2.13
2022-10-25T09:59:39.253Z,2.60
2022-10-25T10:02:06.364Z,2.45
2022-10-25T10:04:39.439Z,2.80
2022-10-25T10:07:13.418Z,2.58
2022-10-25T10:09:45.695Z,2.75
2022-10-25T10:12:21.988Z,2.90
2022-10-25T10:14:58.608Z,2.63
2022-10-25T10:17:27.046Z,2.67
2022-10-25T10:20:09.756Z,2.63
2022-10-25T10:22:50.431Z,2.47
2022-10-25T10:25:25.307Z,2.50
2022-10-25T10:27:55.663Z,2.40
2022-10-25T10:30:30.275Z,2.42
2022-10-25T10:33:00.649Z,2.33
2022-10-25T10:35:34.189Z,2.22
2022-10-25T10:38:33.330Z,2.17
2022-10-25T10:41:28.569Z,2.08
2022-10-25T10:44:13.597Z,1.88
2022-10-25T10:46:46.216Z,1.88
2022-10-25T10:49:14.604Z,2.13
2022-10-25T10:51:44.988Z,2.40
2022-10-25T10:54:22.192Z,2.22
2022-10-25T10:57:23.337Z,2.30
2022-10-25T10:59:56.064Z,2.28
2022-10-25T11:02:39.970Z,1.70
2022-10-25T11:05:37.159Z,1.50
2022-10-25T11:08:09.626Z,1.73
2022-10-25T11:10:37.092Z,1.83
2022-10-25T11:13:09.448Z,1.67
2022-10-25T11:16:04.047Z,2.22
2022-10-25T11:18:50.060Z,1.90
2022-10-25T11:21:53.764Z,1.85
2022-10-25T11:24:53.458Z,1.77
2022-10-25T11:27:35.824Z,1.80
2022-10-25T11:30:21.030Z,1.65
2022-10-25T11:33:01.486Z,1.80
2022-10-25T11:35:49.452Z,2.10
2022-10-25T11:38:51.145Z,1.88
2022-10-25T11:41:32.832Z,1.60
2022-10-25T11:44:36.517Z,1.33
2022-10-25T11:47:21.273Z,1.58
2022-10-25T11:49:57.744Z,1.43
2022-10-25T11:52:41.383Z,1.40
2022-10-25T11:55:38.177Z,1.40
2022-10-25T11:58:32.166Z,1.10
2022-10-25T12:01:30.633Z,1.58
2022-10-25T12:04:28.592Z,1.67
2022-10-25T12:07:13.903Z,1.33
2022-10-25T12:10:16.608Z,1.65
2022-10-25T12:13:04.127Z,1.30
2022-10-25T12:15:46.783Z,1.35
2022-10-25T12:18:26.997Z,1.50
2022-10-25T12:20:55.378Z,1.45
2022-10-25T12:23:25.907Z,1.95
2022-10-25T12:26:01.799Z,1.75
2022-10-25T12:28:47.844Z,1.38
2022-10-25T12:31:18.636Z,1.60
2022-10-25T12:34:22.948Z,1.38
2022-10-25T12:37:08.013Z,1.17
2022-10-25T12:39:43.671Z,1.33
2022-10-25T12:42:18.502Z,1.33
2022-10-25T12:45:22.596Z,1.45
2022-10-25T12:48:11.223Z,1.30
2022-10-25T12:50:58.152Z,1.10
2022-10-25T12:54:08.710Z,1.38
2022-10-25T12:57:28.300Z,1.13
2022-10-25T13:00:04.182Z,1.38
2022-10-25T13:02:48.029Z,1.20
2022-10-25T13:05:32.984Z,1.25
2022-10-25T13:08:04.044Z,1.23
2022-10-25T13:10:48.696Z,1.20
2022-10-25T13:13:23.756Z,1.30
2022-10-25T13:15:55.344Z,1.20
2022-10-25T13:18:48.487Z,1.20
2022-10-25T13:21:36.713Z,1.10
2022-10-25T13:24:03.801Z,1.40
2022-10-25T13:26:32.716Z,1.38
2022-10-25T13:29:24.315Z,1.30
2022-10-25T13:32:11.651Z,1.27
2022-10-25T13:34:39.250Z,1.55
2022-10-25T13:37:26.782Z,1.50
2022-10-25T13:39:56.992Z,1.17
2022-10-25T13:42:35.927Z,1.45
2022-10-25T13:45:02.440Z,1.90
2022-10-25T13:47:41.441Z,1.42
2022-10-25T13:50:29.539Z,2.08
2022-10-25T13:53:14.511Z,1.60
2022-10-25T13:55:47.507Z,1.23
2022-10-25T13:58:31.626Z,1.60
2022-10-25T14:01:20.725Z,1.10
2022-10-25T14:04:02.150Z,1.98
2022-10-25T14:06:37.304Z,1.30
2022-10-25T14:12:00.817Z,2.17
2022-10-25T14:14:36.218Z,1.55
2022-10-25T14:17:38.353Z,1.60
2022-10-25T14:20:21.203Z,1.58
2022-10-25T14:22:53.296Z,1.70
2022-10-25T14:25:34.825Z,1.40
2022-10-25T14:28:28.840Z,1.58
2022-10-25T14:31:00.086Z,1.60
2022-10-25T14:33:27.855Z,1.50
2022-10-25T14:36:09.078Z,1.92
2022-10-25T14:38:50.783Z,2.22
2022-10-25T14:41:22.303Z,1.45
2022-10-25T14:43:49.049Z,1.35
2022-10-25T14:46:18.230Z,1.40
2022-10-25T14:48:46.925Z,1.20
2022-10-25T14:51:22.012Z,1.70
2022-10-25T14:53:55.627Z,1.80
2022-10-25T14:56:27.524Z,1.77
2022-10-25T14:58:55.236Z,2.05
2022-10-25T15:01:23.089Z,1.25
2022-10-25T15:03:52.968Z,1.50
2022-10-25T15:06:22.849Z,1.50
2022-10-25T15:09:05.046Z,1.63
2022-10-25T15:11:45.723Z,1.58
2022-10-25T15:14:20.207Z,2.00
2022-10-25T15:16:49.776Z,1.70
2022-10-25T15:19:20.373Z,1.77
2022-10-25T15:21:52.549Z,1.60
2022-10-25T15:24:23.565Z,1.83
2022-10-25T15:26:58.401Z,1.73
2022-10-25T15:29:51.376Z,1.60
2022-10-25T15:32:19.430Z,1.50
2022-10-25T15:34:49.215Z,1.67
2022-10-25T15:37:17.917Z,1.45
2022-10-25T15:39:50.506Z,1.70
2022-10-25T15:42:17.904Z,1.90
2022-10-25T15:44:44.677Z,1.80
2022-10-25T15:47:20.612Z,1.90
2022-10-25T15:49:51.947Z,1.90
2022-10-25T15:52:18.704Z,1.60
2022-10-25T15:54:45.471Z,2.30
2022-10-25T15:57:12.171Z,1.73
2022-10-25T15:59:38.904Z,2.40
2022-10-25T16:02:21.945Z,2.40
2022-10-25T16:04:49.108Z,1.90
2022-10-25T16:07:16.395Z,2.10
2022-10-25T16:09:43.579Z,2.17
2022-10-25T16:12:18.638Z,2.33
2022-10-25T16:14:46.216Z,2.15
2022-10-25T16:17:13.691Z,2.00
2022-10-25T16:19:40.429Z,1.95
2022-10-25T16:22:08.141Z,2.20
2022-10-25T16:24:34.710Z,2.15
2022-10-25T16:27:01.380Z,2.08
2022-10-25T16:29:28.116Z,2.30
2022-10-25T16:31:54.831Z,2.00
2022-10-25T16:34:21.540Z,2.20
2022-10-25T16:36:50.287Z,2.00
2022-10-25T16:39:17.506Z,2.17
2022-10-25T16:41:45.776Z,2.30
2022-10-25T16:44:15.491Z,2.55
2022-10-25T16:46:42.173Z,2.47
2022-10-25T16:49:09.371Z,2.90
2022-10-25T16:51:37.177Z,2.22
2022-10-25T16:54:04.540Z,2.33
2022-10-25T16:56:31.241Z,2.47
2022-10-25T16:58:57.909Z,2.88
2022-10-25T17:01:32.277Z,2.55
2022-10-25T17:03:59.703Z,2.53
2022-10-25T17:06:40.650Z,3.35
2022-10-25T17:09:08.289Z,3.88
2022-10-25T17:11:36.004Z,2.97
2022-10-25T17:14:02.632Z,3.85
2022-10-25T17:16:29.226Z,3.95
2022-10-25T17:18:56.384Z,3.50
2022-10-25T17:21:23.537Z,3.72
2022-10-25T17:23:50.088Z,3.92
2022-10-25T17:26:17.853Z,4.35
2022-10-25T17:28:44.866Z,3.92
2022-10-25T17:31:14.068Z,4.00
2022-10-25T17:33:42.090Z,3.83
2022-10-25T17:36:13.545Z,4.57
2022-10-25T17:38:40.456Z,4.60
2022-10-25T17:41:07.494Z,4.20
2022-10-25T17:43:35.974Z,4.57
2022-10-25T17:46:04.589Z,4.63
2022-10-25T17:48:31.597Z,5.00
2022-10-25T17:51:09.678Z,5.13
2022-10-25T17:53:36.678Z,6.18
2022-10-25T17:59:04.380Z,6.70
2022-10-25T18:01:35.153Z,6.60
2022-10-25T18:04:01.887Z,6.60
2022-10-25T18:06:30.831Z,6.80
2022-10-25T18:08:58.972Z,7.00
2022-10-25T18:11:28.129Z,7.13
2022-10-25T18:13:58.076Z,6.57
2022-10-25T18:16:30.477Z,7.57
2022-10-25T18:18:59.568Z,6.63
2022-10-25T18:21:26.746Z,6.65
2022-10-25T18:24:01.475Z,5.72
2022-10-25T18:26:28.997Z,5.50
2022-10-25T18:28:57.546Z,5.97
2022-10-25T18:31:27.133Z,5.32
2022-10-25T18:33:59.181Z,5.72
2022-10-25T18:36:30.305Z,5.50
2022-10-25T18:38:57.227Z,5.28
2022-10-25T18:41:27.174Z,5.30
2022-10-25T18:43:54.911Z,5.45
2022-10-25T18:46:23.155Z,5.03
2022-10-25T18:48:51.547Z,5.18
2022-10-25T18:51:19.740Z,5.43
2022-10-25T18:53:46.503Z,5.65
2022-10-25T18:56:19.587Z,5.93
2022-10-25T18:58:48.973Z,5.63
2022-10-25T19:01:22.715Z,6.28
2022-10-25T19:03:50.020Z,6.05
2022-10-25T19:06:16.768Z,6.55
2022-10-25T19:08:44.281Z,5.72
2022-10-25T19:11:13.296Z,5.82
2022-10-25T19:13:40.790Z,5.25
2022-10-25T19:16:08.556Z,5.40
2022-10-25T19:18:37.178Z,5.20
2022-10-25T19:21:09.525Z,5.63
2022-10-25T19:23:37.486Z,5.85
2022-10-25T19:26:05.947Z,5.68
2022-10-25T19:28:33.368Z,5.35
2022-10-25T19:31:14.270Z,6.10
2022-10-25T19:33:49.348Z,6.07
2022-10-25T19:36:17.774Z,5.45
2022-10-25T19:38:50.844Z,5.50
2022-10-25T19:41:20.465Z,5.40
2022-10-25T19:43:47.414Z,5.72
2022-10-25T19:46:14.494Z,5.50
2022-10-25T19:48:41.746Z,6.60
2022-10-25T19:51:14.209Z,5.60
2022-10-25T19:53:41.385Z,6.05
2022-10-25T19:56:11.775Z,5.47
2022-10-25T19:58:38.715Z,5.72
2022-10-25T20:01:31.210Z,5.18
2022-10-25T20:03:59.525Z,4.65
2022-10-25T20:06:29.895Z,4.00
2022-10-25T20:08:57.804Z,4.13
2022-10-25T20:11:25.852Z,3.92
2022-10-25T20:13:57.023Z,4.72
2022-10-25T20:16:24.901Z,4.50
2022-10-25T20:18:51.907Z,4.50
2022-10-25T20:21:22.883Z,4.30
2022-10-25T20:23:55.072Z,4.72
2022-10-25T20:26:24.923Z,6.47
2022-10-25T20:28:57.318Z,6.05
2022-10-25T20:31:26.058Z,6.70
2022-10-25T20:33:53.392Z,5.88
2022-10-25T20:36:20.897Z,5.95
2022-10-25T20:38:47.735Z,6.10
2022-10-25T20:41:20.041Z,6.07
2022-10-25T20:43:49.387Z,6.00
2022-10-25T20:46:16.616Z,5.95
2022-10-25T20:48:43.665Z,6.05
2022-10-25T20:51:12.483Z,5.72
2022-10-25T20:53:43.965Z,5.68
2022-10-25T20:56:11.773Z,6.40
2022-10-25T20:58:38.613Z,6.07
2022-10-25T21:01:05.543Z,6.00
2022-10-25T21:03:32.722Z,6.32
2022-10-25T21:06:03.235Z,5.90
2022-10-25T21:08:30.728Z,5.88
2022-10-25T21:11:02.449Z,6.18
2022-10-25T21:13:34.193Z,5.93
2022-10-25T21:16:15.418Z,5.72
2022-10-25T21:18:43.592Z,5.93
2022-10-25T21:21:17.899Z,5.88
2022-10-25T21:23:45.911Z,4.63
2022-10-25T21:26:12.760Z,5.30
2022-10-25T21:28:41.208Z,5.18
2022-10-25T21:31:10.714Z,5.50
2022-10-25T21:33:38.224Z,5.20
2022-10-25T21:36:08.267Z,5.32
2022-10-25T21:38:35.577Z,4.85
2022-10-25T21:41:07.177Z,4.75
2022-10-25T21:43:34.004Z,5.53
2022-10-25T21:46:03.456Z,4.90
2022-10-25T21:48:30.125Z,5.47
2022-10-25T21:50:58.819Z,4.65
2022-10-25T21:53:25.384Z,5.28
2022-10-25T21:56:01.837Z,4.97
2022-10-25T21:58:28.451Z,6.07
2022-10-25T22:00:55.215Z,5.40
2022-10-25T22:03:23.133Z,5.95
2022-10-25T22:05:52.144Z,5.53
2022-10-25T22:08:21.732Z,5.72
2022-10-25T22:13:30.820Z,5.88
2022-10-25T22:16:06.640Z,5.85
2022-10-25T22:18:33.837Z,5.97
2022-10-25T22:21:04.724Z,5.47
2022-10-25T22:23:31.867Z,5.47
2022-10-25T22:26:05.245Z,5.65
2022-10-25T22:28:34.340Z,5.60
2022-10-25T22:31:08.744Z,5.43
2022-10-25T22:33:36.118Z,5.45
2022-10-25T22:36:10.462Z,5.70
2022-10-25T22:38:37.304Z,5.50
2022-10-25T22:41:12.561Z,5.60
2022-10-25T22:46:08.809Z,4.80
2022-10-25T22:48:38.167Z,5.53
2022-10-25T22:51:05.679Z,5.53
2022-10-25T22:53:33.777Z,5.28
2022-10-25T22:56:02.776Z,5.28
2022-10-25T22:58:32.474Z,5.15
2022-10-25T23:01:12.397Z,4.93
2022-10-25T23:03:44.071Z,5.35
2022-10-25T23:06:19.951Z,5.30
2022-10-25T23:08:46.543Z,5.80
2022-10-25T23:11:15.654Z,4.85
2022-10-25T23:13:42.550Z,4.93
2022-10-25T23:16:10.167Z,5.70
2022-10-25T23:18:37.459Z,4.55
2022-10-25T23:21:06.928Z,5.10
2022-10-25T23:23:34.841Z,5.18
2022-10-25T23:26:02.306Z,5.22
2022-10-25T23:28:34.451Z,4.60
2022-10-25T23:31:05.557Z,4.70
2022-10-25T23:33:32.204Z,5.28
2022-10-25T23:36:09.346Z,4.57
2022-10-25T23:38:36.856Z,5.47
2022-10-25T23:41:04.553Z,4.93
2022-10-25T23:43:31.411Z,4.97
2022-10-25T23:45:58.393Z,4.95
2022-10-25T23:48:25.163Z,4.93
2022-10-25T23:53:31.663Z,5.05
2022-10-25T23:55:58.766Z,4.60
2022-10-25T23:58:25.804Z,5.35
